Time;durP1;ratioP1;P1;durP2;ratioP2;P2;SDS_P1;SDS_P2;PMS_P1;PMS_P2;Temp;Humidity;BMP_temperature;BMP_pressure;BME280_temperature;BME280_humidity;BME280_pressure;Samples;Min_cycle;Max_cycle;Signal;HPM_P1;HPM_P2
2021/05/23 00:02:14;;;;;;;1.13;1.10;;;13.30;74.00;;;;;;3580242;40;20319;-68
2021/05/23 00:04:40;;;;;;;1.65;1.05;;;13.20;73.80;;;;;;3578061;40;20040;-67
2021/05/23 00:07:08;;;;;;;1.77;1.00;;;13.20;73.90;;;;;;3575575;40;20813;-67
2021/05/23 00:09:35;;;;;;;1.50;1.00;;;13.10;73.60;;;;;;3574463;40;20161;-67
2021/05/23 00:12:00;;;;;;;1.67;0.93;;;13.10;74.00;;;;;;3571832;40;20035;-67
2021/05/23 00:14:26;;;;;;;2.25;1.15;;;13.00;73.80;;;;;;3573878;40;20033;-68
2021/05/23 00:16:52;;;;;;;1.13;1.10;;;13.00;74.10;;;;;;3576142;40;20025;-67
2021/05/23 00:19:18;;;;;;;2.00;1.20;;;13.00;74.40;;;;;;3577006;40;20110;-67
2021/05/23 00:21:44;;;;;;;1.45;1.10;;;12.90;74.60;;;;;;3575926;40;20039;-68
2021/05/23 00:24:10;;;;;;;1.45;1.17;;;13.00;74.70;;;;;;3578482;40;20043;-68
2021/05/23 00:26:36;;;;;;;1.88;1.30;;;13.00;74.60;;;;;;3579430;40;20030;-67
2021/05/23 00:29:06;;;;;;;1.65;1.20;;;13.00;74.60;;;;;;3579074;40;20029;-68
2021/05/23 00:31:33;;;;;;;2.00;1.20;;;13.00;74.90;;;;;;3577233;40;20311;-67
2021/05/23 00:33:59;;;;;;;1.33;0.98;;;13.00;75.30;;;;;;3575171;40;20033;-66
2021/05/23 00:36:25;;;;;;;1.65;1.23;;;13.00;75.50;;;;;;3570942;40;20310;-67
2021/05/23 00:38:51;;;;;;;1.52;1.27;;;13.00;74.60;;;;;;3572034;40;20069;-68
2021/05/23 00:41:16;;;;;;;2.10;1.50;;;13.00;74.50;;;;;;3572215;40;20041;-67
2021/05/23 00:43:42;;;;;;;2.70;1.27;;;13.00;74.40;;;;;;3576102;40;20036;-67
2021/05/23 00:46:08;;;;;;;1.20;1.08;;;13.00;74.60;;;;;;3577949;40;20032;-67
2021/05/23 00:48:34;;;;;;;1.30;1.20;;;13.00;74.40;;;;;;3579376;39;20129;-67
2021/05/23 00:51:00;;;;;;;2.17;1.50;;;13.00;74.00;;;;;;3580976;40;20044;-67
2021/05/23 00:53:26;;;;;;;1.10;1.10;;;13.00;74.40;;;;;;3579361;40;20615;-67
2021/05/23 00:55:52;;;;;;;1.40;1.23;;;12.90;74.60;;;;;;3574835;40;20037;-67
2021/05/23 00:58:19;;;;;;;1.40;1.30;;;12.90;74.40;;;;;;3578443;40;20025;-67
2021/05/23 01:00:46;;;;;;;1.50;1.40;;;12.80;74.90;;;;;;3572623;40;20040;-67
2021/05/23 01:03:27;;;;;;;2.45;1.20;;;12.80;75.30;;;;;;3572813;40;20111;-68
2021/05/23 01:06:05;;;;;;;2.55;1.20;;;12.70;75.70;;;;;;3574843;40;20422;-67
2021/05/23 01:08:33;;;;;;;1.63;1.52;;;12.60;75.80;;;;;;3577019;40;20017;-67
2021/05/23 01:11:28;;;;;;;2.10;1.70;;;12.60;75.80;;;;;;3577696;40;20040;-68
2021/05/23 01:13:57;;;;;;;1.50;1.40;;;12.60;75.60;;;;;;3572326;40;20043;-68
2021/05/23 01:16:28;;;;;;;2.13;1.40;;;12.50;75.70;;;;;;3569965;40;20021;-68
2021/05/23 01:19:18;;;;;;;1.52;1.42;;;12.40;75.90;;;;;;3573550;40;20052;-67
2021/05/23 01:21:53;;;;;;;2.72;1.35;;;12.40;75.90;;;;;;3575555;40;20406;-67
2021/05/23 01:24:30;;;;;;;1.48;1.33;;;12.30;76.10;;;;;;3578071;40;20676;-67
2021/05/23 01:26:55;;;;;;;3.05;1.58;;;12.30;76.10;;;;;;3570848;40;20793;-67
2021/05/23 01:29:21;;;;;;;2.33;1.60;;;12.30;76.40;;;;;;3572109;40;20029;-67
2021/05/23 01:31:48;;;;;;;1.52;1.35;;;12.20;76.40;;;;;;3574236;40;20052;-68
2021/05/23 01:34:20;;;;;;;2.15;1.50;;;12.20;76.30;;;;;;3576385;40;20040;-68
2021/05/23 01:36:46;;;;;;;2.40;1.60;;;12.20;76.60;;;;;;3577963;40;20040;-67
2021/05/23 01:39:13;;;;;;;1.85;1.60;;;12.20;76.30;;;;;;3579835;40;20706;-67
2021/05/23 01:41:41;;;;;;;2.05;1.30;;;12.20;76.30;;;;;;3580487;40;20143;-66
2021/05/23 01:44:08;;;;;;;2.08;1.48;;;12.20;76.40;;;;;;3578869;40;20033;-67
2021/05/23 01:46:35;;;;;;;2.10;1.33;;;12.10;76.20;;;;;;3576311;40;20033;-67
2021/05/23 01:49:01;;;;;;;1.83;1.42;;;12.10;76.60;;;;;;3574670;40;20040;-67
2021/05/23 01:51:27;;;;;;;2.50;1.50;;;12.00;76.60;;;;;;3573128;40;20068;-67
2021/05/23 01:53:53;;;;;;;1.30;1.20;;;12.00;76.80;;;;;;3571927;40;20018;-67
2021/05/23 01:56:18;;;;;;;1.48;1.38;;;12.00;76.80;;;;;;3574377;40;20028;-67
2021/05/23 01:58:44;;;;;;;1.60;1.50;;;12.00;77.20;;;;;;3576197;40;20028;-67
2021/05/23 02:01:10;;;;;;;2.05;1.50;;;11.90;76.80;;;;;;3576905;40;20035;-67
2021/05/23 02:03:36;;;;;;;2.30;1.50;;;11.90;77.30;;;;;;3578363;40;20029;-67
2021/05/23 02:06:04;;;;;;;1.60;1.50;;;11.90;77.30;;;;;;3577106;40;20036;-68
2021/05/23 02:08:32;;;;;;;1.45;1.38;;;11.90;77.70;;;;;;3574255;40;20040;-67
2021/05/23 02:11:08;;;;;;;1.50;1.40;;;11.90;77.40;;;;;;3575960;40;20029;-67
2021/05/23 02:13:38;;;;;;;3.00;1.70;;;11.90;77.50;;;;;;3577036;40;20814;-68
2021/05/23 02:16:05;;;;;;;2.22;1.60;;;11.80;77.30;;;;;;3574197;40;20027;-67
2021/05/23 02:18:36;;;;;;;2.05;1.80;;;11.80;77.30;;;;;;3573890;40;20052;-67
2021/05/23 02:21:02;;;;;;;1.88;1.40;;;11.80;77.70;;;;;;3578233;40;20142;-67
2021/05/23 02:23:28;;;;;;;2.67;1.58;;;11.70;77.70;;;;;;3577960;40;20123;-67
2021/05/23 02:25:55;;;;;;;1.65;1.35;;;11.70;78.00;;;;;;3577087;40;20079;-68
2021/05/23 02:28:22;;;;;;;2.33;1.63;;;11.60;78.30;;;;;;3579604;40;20032;-68
2021/05/23 02:30:54;;;;;;;2.38;1.80;;;11.60;78.20;;;;;;3570938;40;20025;-67
2021/05/23 02:33:21;;;;;;;3.13;1.80;;;11.50;78.40;;;;;;3575149;40;20108;-67
2021/05/23 02:35:50;;;;;;;1.77;1.48;;;11.50;78.70;;;;;;3577160;40;20107;-67
2021/05/23 02:38:18;;;;;;;2.83;1.70;;;11.50;79.10;;;;;;3576353;40;20130;-67
2021/05/23 02:40:45;;;;;;;3.13;1.52;;;11.50;78.90;;;;;;3577719;40;20463;-67
2021/05/23 02:43:12;;;;;;;2.20;1.45;;;11.50;78.90;;;;;;3580550;40;20065;-67
2021/05/23 02:45:39;;;;;;;1.20;1.10;;;11.40;79.30;;;;;;3575095;40;20091;-67
2021/05/23 02:48:06;;;;;;;1.38;1.27;;;11.50;79.50;;;;;;3576331;40;20072;-67
2021/05/23 02:50:43;;;;;;;1.83;1.30;;;11.50;79.70;;;;;;3576900;40;20033;-67
2021/05/23 02:53:11;;;;;;;1.67;1.20;;;11.50;79.80;;;;;;3575857;40;20040;-67
2021/05/23 02:55:38;;;;;;;2.72;1.23;;;11.60;79.80;;;;;;3582250;40;20025;-67
2021/05/23 02:58:06;;;;;;;1.50;1.27;;;11.70;79.60;;;;;;3579426;40;20059;-67
2021/05/23 03:00:32;;;;;;;1.55;1.45;;;11.80;79.70;;;;;;3577745;40;20028;-67
2021/05/23 03:02:57;;;;;;;1.98;1.33;;;11.80;79.60;;;;;;3575566;40;20020;-67
2021/05/23 03:05:24;;;;;;;1.70;1.20;;;11.80;79.60;;;;;;3579066;40;20033;-67
2021/05/23 03:07:53;;;;;;;2.38;1.17;;;11.80;79.60;;;;;;3581815;40;20035;-67
2021/05/23 03:10:32;;;;;;;1.30;1.13;;;11.80;79.40;;;;;;3579585;40;20118;-67
2021/05/23 03:13:00;;;;;;;1.77;1.00;;;11.80;79.40;;;;;;3577910;40;20096;-68
2021/05/23 03:15:27;;;;;;;1.27;1.20;;;11.80;79.50;;;;;;3577379;40;20021;-67
2021/05/23 03:17:54;;;;;;;3.05;1.50;;;11.80;79.80;;;;;;3576283;40;20032;-68
2021/05/23 03:20:21;;;;;;;1.42;1.17;;;11.80;79.50;;;;;;3576802;40;20727;-67
2021/05/23 03:22:50;;;;;;;2.50;1.27;;;11.80;79.60;;;;;;3580468;40;20033;-67
2021/05/23 03:25:17;;;;;;;5.13;1.50;;;11.80;79.80;;;;;;3576334;40;20032;-67
2021/05/23 03:27:43;;;;;;;2.15;1.58;;;11.80;79.40;;;;;;3575945;40;20033;-67
2021/05/23 03:30:16;;;;;;;2.85;1.35;;;11.80;79.40;;;;;;3578180;40;20028;-67
2021/05/23 03:32:42;;;;;;;2.03;1.55;;;11.80;79.80;;;;;;3571129;40;20837;-67
2021/05/23 03:35:09;;;;;;;2.22;1.38;;;11.70;80.00;;;;;;3575172;40;20032;-67
2021/05/23 03:37:36;;;;;;;3.17;1.42;;;11.60;80.20;;;;;;3574348;40;20076;-67
2021/05/23 03:40:04;;;;;;;1.48;1.27;;;11.50;80.40;;;;;;3575114;40;20699;-68
2021/05/23 03:42:30;;;;;;;1.42;1.20;;;11.50;80.90;;;;;;3575023;40;20024;-67
2021/05/23 03:44:55;;;;;;;3.63;1.45;;;11.40;81.30;;;;;;3572147;40;20126;-67
2021/05/23 03:47:21;;;;;;;1.70;1.17;;;11.40;81.60;;;;;;3574920;40;20563;-67
2021/05/23 03:49:47;;;;;;;2.05;1.05;;;11.40;81.20;;;;;;3573943;40;20031;-67
2021/05/23 03:52:13;;;;;;;2.05;1.15;;;11.40;80.90;;;;;;3575450;40;20036;-68
2021/05/23 03:54:39;;;;;;;2.60;1.52;;;11.40;81.00;;;;;;3575989;40;20028;-67
2021/05/23 03:57:05;;;;;;;2.03;1.10;;;11.40;81.10;;;;;;3574029;40;20033;-67
2021/05/23 03:59:32;;;;;;;2.20;1.08;;;11.30;81.40;;;;;;3572129;40;20033;-68
2021/05/23 04:01:58;;;;;;;1.30;1.20;;;11.30;81.40;;;;;;3573173;40;20595;-67
2021/05/23 04:04:24;;;;;;;1.10;1.10;;;11.40;81.50;;;;;;3575242;40;20040;-67
2021/05/23 04:06:50;;;;;;;2.03;1.30;;;11.40;81.90;;;;;;3577332;40;20021;-67
2021/05/23 04:09:19;;;;;;;1.40;1.23;;;11.40;81.80;;;;;;3577055;40;20032;-67
2021/05/23 04:11:50;;;;;;;2.28;1.52;;;11.40;81.60;;;;;;3574842;40;20036;-67
2021/05/23 04:14:16;;;;;;;1.67;1.20;;;11.30;81.70;;;;;;3575091;40;20037;-67
2021/05/23 04:16:42;;;;;;;2.08;1.30;;;11.40;81.70;;;;;;3574213;40;20153;-67
2021/05/23 04:19:08;;;;;;;1.52;1.30;;;11.40;81.40;;;;;;3575017;40;20041;-67
2021/05/23 04:21:35;;;;;;;1.23;1.13;;;11.50;81.60;;;;;;3579118;40;20126;-67
2021/05/23 04:24:01;;;;;;;2.15;1.27;;;11.50;81.10;;;;;;3571180;40;20145;-67
2021/05/23 04:26:27;;;;;;;1.58;1.02;;;11.50;81.20;;;;;;3573581;40;20138;-67
2021/05/23 04:28:52;;;;;;;2.85;1.00;;;11.50;81.40;;;;;;3572553;40;20033;-67
2021/05/23 04:31:18;;;;;;;3.17;1.23;;;11.60;81.20;;;;;;3574904;40;20032;-68
2021/05/23 04:33:44;;;;;;;2.22;1.10;;;11.70;80.90;;;;;;3575002;40;20041;-68
2021/05/23 04:36:09;;;;;;;2.80;1.23;;;11.90;80.50;;;;;;3575906;40;20878;-67
2021/05/23 04:38:35;;;;;;;2.00;1.15;;;12.00;79.70;;;;;;3572943;40;20066;-67
2021/05/23 04:41:01;;;;;;;3.20;1.23;;;12.20;78.80;;;;;;3576307;40;20463;-67
2021/05/23 04:43:26;;;;;;;1.85;1.05;;;12.30;78.40;;;;;;3576243;40;20044;-67
2021/05/23 04:45:52;;;;;;;1.23;0.90;;;12.40;78.30;;;;;;3577514;40;20029;-69
2021/05/23 04:48:18;;;;;;;0.85;0.85;;;12.50;78.10;;;;;;3576403;40;20052;-68
2021/05/23 04:50:43;;;;;;;3.83;0.85;;;12.60;77.30;;;;;;3574516;40;20574;-68
2021/05/23 04:53:09;;;;;;;1.27;0.73;;;12.70;76.60;;;;;;3575368;40;20032;-67
2021/05/23 04:55:35;;;;;;;1.45;0.93;;;12.80;75.70;;;;;;3576455;40;20505;-67
2021/05/23 04:58:03;;;;;;;0.80;0.73;;;12.90;75.60;;;;;;3572125;40;20782;-67
2021/05/23 05:00:28;;;;;;;2.35;0.80;;;13.00;75.10;;;;;;3570985;40;20741;-68
2021/05/23 05:02:54;;;;;;;2.08;0.77;;;13.10;75.00;;;;;;3572860;40;20122;-67
2021/05/23 05:05:20;;;;;;;1.38;0.75;;;13.10;74.50;;;;;;3573692;40;20040;-67
2021/05/23 05:07:46;;;;;;;0.75;0.70;;;13.20;74.50;;;;;;3575879;40;20032;-67
2021/05/23 05:10:12;;;;;;;0.85;0.75;;;13.30;74.40;;;;;;3573109;40;20062;-67
2021/05/23 05:12:39;;;;;;;1.55;1.00;;;13.30;73.30;;;;;;3572042;40;20110;-67
2021/05/23 05:15:08;;;;;;;0.73;0.73;;;13.30;73.90;;;;;;3571545;40;20467;-67
2021/05/23 05:17:34;;;;;;;0.88;0.73;;;13.20;74.00;;;;;;3576645;40;20115;-67
2021/05/23 05:20:00;;;;;;;2.85;0.93;;;13.20;73.80;;;;;;3576208;40;20442;-67
2021/05/23 05:22:26;;;;;;;1.13;0.65;;;13.20;73.80;;;;;;3577129;40;20029;-67
2021/05/23 05:24:51;;;;;;;2.15;0.80;;;13.30;74.00;;;;;;3577736;40;20045;-68
2021/05/23 05:27:19;;;;;;;0.77;0.73;;;13.30;73.70;;;;;;3579867;40;20052;-67
2021/05/23 05:29:45;;;;;;;1.15;0.75;;;13.20;73.40;;;;;;3576113;40;20064;-68
2021/05/23 05:32:11;;;;;;;1.52;0.68;;;13.20;72.90;;;;;;3575874;40;20044;-67
2021/05/23 05:34:36;;;;;;;0.77;0.60;;;13.20;73.50;;;;;;3572879;40;20199;-67
2021/05/23 05:37:03;;;;;;;2.10;0.70;;;13.20;74.00;;;;;;3571203;40;20049;-67
2021/05/23 05:39:29;;;;;;;1.05;0.80;;;13.20;73.30;;;;;;3574617;40;20699;-67
2021/05/23 05:41:55;;;;;;;2.17;0.70;;;13.30;72.80;;;;;;3573514;40;20114;-67
2021/05/23 05:44:21;;;;;;;1.02;0.65;;;13.30;73.00;;;;;;3574273;40;20032;-67
2021/05/23 05:46:47;;;;;;;1.77;0.80;;;13.30;73.00;;;;;;3572840;40;20048;-67
2021/05/23 05:49:12;;;;;;;1.45;0.68;;;13.40;72.20;;;;;;3575856;40;20389;-68
2021/05/23 05:51:38;;;;;;;2.72;0.93;;;13.30;73.00;;;;;;3577763;40;20028;-67
2021/05/23 05:54:04;;;;;;;3.00;0.90;;;13.30;73.00;;;;;;3570445;40;20032;-68
2021/05/23 05:56:29;;;;;;;3.05;0.90;;;13.20;73.30;;;;;;3574417;40;20021;-67
2021/05/23 05:58:55;;;;;;;1.50;0.80;;;13.20;73.10;;;;;;3574991;40;20108;-66
2021/05/23 06:01:21;;;;;;;2.88;0.60;;;13.20;73.10;;;;;;3572477;40;20044;-68
2021/05/23 06:03:46;;;;;;;2.15;0.85;;;13.10;73.00;;;;;;3579561;40;20044;-67
2021/05/23 06:06:12;;;;;;;2.53;0.88;;;13.00;73.60;;;;;;3578492;40;20028;-67
2021/05/23 06:08:38;;;;;;;2.30;1.25;;;13.00;74.50;;;;;;3572749;40;20025;-67
2021/05/23 06:11:03;;;;;;;2.58;0.75;;;13.00;74.60;;;;;;3573756;40;20029;-68
2021/05/23 06:13:29;;;;;;;1.77;0.65;;;13.10;73.70;;;;;;3575271;40;20477;-66
2021/05/23 06:15:55;;;;;;;2.58;0.90;;;13.10;73.20;;;;;;3574664;40;20024;-67
2021/05/23 06:18:25;;;;;;;1.38;0.73;;;13.10;74.20;;;;;;3575014;40;20017;-66
2021/05/23 06:20:51;;;;;;;2.22;0.90;;;13.20;73.60;;;;;;3572741;40;20025;-66
2021/05/23 06:23:17;;;;;;;2.55;0.75;;;13.20;74.00;;;;;;3574142;40;20041;-66
2021/05/23 06:25:42;;;;;;;1.42;0.60;;;13.20;73.70;;;;;;3577085;40;20076;-66
2021/05/23 06:28:08;;;;;;;1.55;0.75;;;13.10;73.80;;;;;;3572122;40;20036;-68
2021/05/23 06:30:34;;;;;;;2.33;0.65;;;13.10;74.10;;;;;;3573764;40;20040;-66
2021/05/23 06:33:00;;;;;;;2.17;0.85;;;13.10;73.90;;;;;;3573665;40;20036;-67
2021/05/23 06:35:26;;;;;;;0.82;0.70;;;13.20;73.70;;;;;;3574757;40;20059;-68
2021/05/23 06:37:51;;;;;;;2.58;0.60;;;13.30;73.80;;;;;;3576528;40;20028;-67
2021/05/23 06:40:17;;;;;;;1.00;0.70;;;13.40;73.50;;;;;;3577935;40;20055;-66
2021/05/23 06:42:43;;;;;;;1.98;0.50;;;13.60;72.70;;;;;;3576145;40;20096;-67
2021/05/23 06:45:09;;;;;;;2.08;0.70;;;13.70;72.70;;;;;;3571699;40;20032;-67
2021/05/23 06:47:35;;;;;;;1.55;0.55;;;13.90;71.80;;;;;;3575465;40;20032;-68
2021/05/23 06:50:00;;;;;;;1.00;0.57;;;14.20;70.90;;;;;;3572724;39;20041;-68
2021/05/23 06:52:26;;;;;;;2.85;0.80;;;14.40;69.40;;;;;;3573895;40;20033;-67
2021/05/23 06:54:52;;;;;;;2.13;0.80;;;14.70;68.60;;;;;;3572012;40;20037;-67
2021/05/23 06:57:18;;;;;;;1.35;0.70;;;14.80;67.80;;;;;;3575310;40;20041;-68
2021/05/23 06:59:43;;;;;;;1.50;0.70;;;14.80;68.00;;;;;;3573276;40;20039;-68
2021/05/23 07:02:09;;;;;;;2.92;1.30;;;14.70;67.50;;;;;;3574738;40;20140;-67
2021/05/23 07:04:35;;;;;;;1.77;0.60;;;14.60;67.80;;;;;;3575971;40;20415;-67
2021/05/23 07:07:00;;;;;;;2.40;1.23;;;14.60;68.50;;;;;;3575901;40;20467;-68
2021/05/23 07:09:26;;;;;;;1.27;0.93;;;14.60;68.80;;;;;;3575971;40;20033;-67
2021/05/23 07:11:52;;;;;;;2.83;0.90;;;14.60;68.70;;;;;;3575081;40;20029;-68
2021/05/23 07:14:18;;;;;;;2.97;1.20;;;14.70;68.20;;;;;;3574553;40;20661;-66
2021/05/23 07:16:43;;;;;;;1.55;0.60;;;14.80;68.20;;;;;;3578687;40;20033;-67
2021/05/23 07:19:09;;;;;;;2.55;0.80;;;14.80;68.20;;;;;;3573156;40;20043;-68
2021/05/23 07:21:35;;;;;;;3.80;1.92;;;14.90;68.40;;;;;;3575741;40;20021;-67
2021/05/23 07:24:01;;;;;;;1.98;0.63;;;15.10;69.40;;;;;;3576485;40;20052;-67
2021/05/23 07:26:26;;;;;;;1.67;0.82;;;15.30;67.80;;;;;;3574800;40;20031;-67
2021/05/23 07:28:53;;;;;;;2.40;0.60;;;15.50;66.60;;;;;;3572055;40;20058;-67
2021/05/23 07:31:19;;;;;;;1.33;0.55;;;15.80;65.60;;;;;;3571168;40;20127;-67
2021/05/23 07:33:44;;;;;;;0.95;0.70;;;16.10;65.10;;;;;;3576066;40;20032;-67
2021/05/23 07:36:12;;;;;;;1.40;0.63;;;16.50;62.40;;;;;;3574624;40;20342;-67
2021/05/23 07:38:38;;;;;;;2.90;0.70;;;16.70;61.50;;;;;;3581477;40;20041;-67
2021/05/23 07:41:04;;;;;;;1.23;0.70;;;16.70;60.70;;;;;;3577996;40;20032;-67
2021/05/23 07:43:30;;;;;;;2.10;1.10;;;16.80;58.80;;;;;;3580027;40;20031;-66
2021/05/23 07:45:56;;;;;;;0.82;0.70;;;16.90;60.10;;;;;;3578475;40;20032;-68
2021/05/23 07:48:22;;;;;;;1.48;0.82;;;17.00;59.50;;;;;;3576030;40;20042;-68
2021/05/23 07:50:48;;;;;;;2.00;0.93;;;17.20;59.10;;;;;;3573677;40;20036;-67
2021/05/23 07:53:15;;;;;;;2.33;1.02;;;17.20;58.70;;;;;;3574708;40;20029;-68
2021/05/23 07:55:42;;;;;;;4.53;0.88;;;17.30;59.00;;;;;;3572870;40;20502;-67
2021/05/23 07:58:08;;;;;;;2.70;1.20;;;17.30;58.60;;;;;;3573931;40;20543;-67
2021/05/23 08:00:33;;;;;;;1.45;0.80;;;17.50;59.40;;;;;;3576865;40;20032;-67
2021/05/23 08:02:59;;;;;;;2.05;0.80;;;17.50;58.70;;;;;;3574367;40;20025;-67
2021/05/23 08:05:25;;;;;;;1.90;0.90;;;17.60;58.20;;;;;;3576391;40;20032;-67
2021/05/23 08:07:51;;;;;;;1.27;0.75;;;17.60;58.40;;;;;;3575959;40;20017;-67
2021/05/23 08:10:17;;;;;;;2.85;1.35;;;17.60;58.50;;;;;;3571103;40;20043;-67
2021/05/23 08:12:43;;;;;;;4.53;1.00;;;17.70;57.60;;;;;;3572800;40;20025;-66
2021/05/23 08:15:12;;;;;;;1.48;0.90;;;17.80;58.10;;;;;;3572885;40;20039;-66
2021/05/23 08:17:38;;;;;;;1.92;0.93;;;17.90;58.10;;;;;;3574169;40;20036;-67
2021/05/23 08:20:05;;;;;;;1.75;1.05;;;17.90;56.70;;;;;;3570801;40;20044;-67
2021/05/23 08:22:30;;;;;;;1.10;0.93;;;17.80;57.10;;;;;;3578894;40;20271;-66
2021/05/23 08:24:56;;;;;;;2.05;1.10;;;17.60;58.10;;;;;;3573164;40;20043;-68
2021/05/23 08:27:22;;;;;;;1.15;0.98;;;17.60;58.10;;;;;;3575204;40;20056;-68
2021/05/23 08:29:47;;;;;;;2.60;1.05;;;17.60;58.80;;;;;;3574274;40;20033;-70
2021/05/23 08:32:13;;;;;;;1.85;0.90;;;17.70;58.70;;;;;;3572259;40;20644;-69
2021/05/23 08:34:39;;;;;;;1.33;0.98;;;17.90;58.80;;;;;;3572693;40;20045;-70
2021/05/23 08:37:04;;;;;;;1.55;0.68;;;18.00;57.40;;;;;;3574139;40;20037;-69
2021/05/23 08:39:30;;;;;;;2.80;1.05;;;18.10;57.90;;;;;;3573002;40;20040;-68
2021/05/23 08:41:56;;;;;;;0.57;0.57;;;18.20;57.70;;;;;;3574127;40;20028;-68
2021/05/23 08:44:23;;;;;;;2.95;1.20;;;18.20;57.80;;;;;;3576746;40;20040;-69
2021/05/23 08:46:51;;;;;;;4.00;2.00;;;18.00;57.80;;;;;;3570908;40;20044;-69
2021/05/23 08:49:20;;;;;;;1.15;0.90;;;17.70;59.40;;;;;;3572052;40;20044;-70
2021/05/23 08:51:46;;;;;;;1.25;0.80;;;17.40;59.90;;;;;;3573692;40;20020;-68
2021/05/23 08:54:13;;;;;;;0.80;0.80;;;17.20;59.80;;;;;;3574770;40;20413;-68
2021/05/23 08:56:40;;;;;;;1.05;0.70;;;17.20;61.30;;;;;;3576709;40;20838;-68
2021/05/23 08:59:10;;;;;;;1.13;0.52;;;17.20;60.90;;;;;;3570733;40;20113;-69
2021/05/23 09:01:38;;;;;;;2.05;0.70;;;17.30;60.70;;;;;;3572008;40;20081;-67
2021/05/23 09:04:05;;;;;;;1.60;0.75;;;17.50;59.30;;;;;;3575475;40;20110;-68
2021/05/23 09:06:34;;;;;;;1.52;0.68;;;17.50;60.10;;;;;;3576887;40;20323;-68
2021/05/23 09:09:03;;;;;;;1.60;0.45;;;17.50;59.50;;;;;;3579763;40;20126;-69
2021/05/23 09:11:29;;;;;;;1.33;0.52;;;17.40;59.60;;;;;;3581489;40;20380;-66
2021/05/23 09:13:56;;;;;;;0.70;0.50;;;17.30;59.50;;;;;;3577440;40;20060;-68
2021/05/23 09:16:22;;;;;;;1.00;0.70;;;17.30;59.50;;;;;;3578329;40;20024;-68
2021/05/23 09:18:56;;;;;;;0.93;0.70;;;17.20;60.70;;;;;;3576267;40;20051;-70
2021/05/23 09:21:34;;;;;;;1.52;1.00;;;17.20;59.90;;;;;;3572344;40;20772;-70
2021/05/23 09:24:08;;;;;;;1.75;1.30;;;17.20;59.30;;;;;;3574652;40;20033;-69
2021/05/23 09:26:46;;;;;;;0.70;0.70;;;17.30;60.10;;;;;;3574530;40;20141;-69
2021/05/23 09:29:17;;;;;;;3.65;2.00;;;17.30;59.30;;;;;;3575563;40;20499;-69
2021/05/23 09:31:46;;;;;;;5.70;3.05;;;17.60;59.60;;;;;;3574987;40;20036;-70
2021/05/23 09:34:24;;;;;;;7.97;4.38;;;17.90;59.00;;;;;;3571996;40;20117;-68
2021/05/23 09:36:50;;;;;;;30.05;19.63;;;18.10;57.20;;;;;;3575480;40;20761;-68
2021/05/23 09:39:16;;;;;;;3.95;3.60;;;18.30;55.60;;;;;;3574454;40;20114;-70
2021/05/23 09:41:43;;;;;;;7.03;3.00;;;18.30;55.30;;;;;;3574621;40;20040;-70
2021/05/23 09:44:22;;;;;;;2.67;2.08;;;18.30;56.30;;;;;;3573104;40;20025;-70
2021/05/23 09:46:55;;;;;;;0.88;0.88;;;18.40;56.10;;;;;;3572069;40;20081;-69
2021/05/23 09:49:23;;;;;;;0.80;0.80;;;18.40;56.10;;;;;;3573060;40;20468;-69
2021/05/23 09:52:00;;;;;;;1.50;1.10;;;18.50;55.60;;;;;;3571860;40;20619;-70
2021/05/23 09:54:29;;;;;;;1.95;1.77;;;18.60;54.80;;;;;;3575432;40;20036;-71
2021/05/23 09:56:56;;;;;;;2.10;0.90;;;18.70;54.60;;;;;;3573427;40;20057;-69
2021/05/23 09:59:27;;;;;;;1.60;1.35;;;18.80;54.20;;;;;;3575666;40;20130;-74
2021/05/23 10:02:11;;;;;;;1.90;1.35;;;18.80;54.30;;;;;;3571143;40;20027;-69
2021/05/23 10:04:38;;;;;;;10.38;6.40;;;18.90;54.90;;;;;;3573710;40;20073;-70
2021/05/23 10:07:09;;;;;;;7.43;4.80;;;18.80;54.00;;;;;;3573562;40;20016;-70
2021/05/23 10:09:36;;;;;;;8.23;5.57;;;18.80;55.80;;;;;;3574364;40;20142;-70
2021/05/23 10:12:03;;;;;;;2.10;1.55;;;18.90;54.40;;;;;;3577795;40;20032;-69
2021/05/23 10:14:29;;;;;;;5.43;3.38;;;19.20;53.60;;;;;;3577536;40;20044;-71
2021/05/23 10:16:55;;;;;;;4.30;2.97;;;19.40;53.30;;;;;;3577984;40;20037;-69
2021/05/23 10:19:27;;;;;;;8.80;4.72;;;19.50;52.70;;;;;;3574665;40;20102;-68
2021/05/23 10:21:55;;;;;;;2.35;1.60;;;19.40;53.00;;;;;;3573352;40;20037;-71
2021/05/23 10:24:29;;;;;;;2.10;1.60;;;19.50;53.50;;;;;;3572283;40;20041;-69
2021/05/23 10:27:03;;;;;;;1.48;1.38;;;19.50;54.30;;;;;;3568717;40;20025;-69
2021/05/23 10:29:35;;;;;;;0.95;0.82;;;19.70;53.30;;;;;;3572337;40;20069;-70
2021/05/23 10:32:23;;;;;;;17.67;11.70;;;19.70;53.20;;;;;;3571414;40;20746;-70
2021/05/23 10:34:49;;;;;;;10.90;5.72;;;19.70;51.90;;;;;;3577249;40;20620;-69
2021/05/23 10:37:28;;;;;;;19.00;9.35;;;19.70;52.30;;;;;;3570109;40;20417;-68
2021/05/23 10:39:55;;;;;;;2.25;1.88;;;20.00;51.40;;;;;;3574780;40;20035;-70
2021/05/23 10:42:27;;;;;;;4.40;2.15;;;20.30;51.40;;;;;;3579291;40;20044;-70
2021/05/23 10:44:55;;;;;;;2.65;1.95;;;20.30;50.70;;;;;;3570203;40;20843;-71
2021/05/23 10:47:25;;;;;;;5.60;4.10;;;20.30;49.60;;;;;;3576821;40;20055;-71
2021/05/23 10:49:54;;;;;;;2.45;1.40;;;20.20;50.50;;;;;;3574608;40;20036;-72
2021/05/23 10:52:20;;;;;;;3.00;2.30;;;20.30;50.70;;;;;;3575679;40;20040;-71
2021/05/23 10:55:11;;;;;;;1.63;1.50;;;20.20;51.00;;;;;;3573187;40;20052;-70
2021/05/23 10:57:47;;;;;;;2.42;0.98;;;20.30;51.80;;;;;;3575376;40;20036;-71
2021/05/23 11:00:35;;;;;;;1.10;0.85;;;20.20;50.40;;;;;;3574564;40;20037;-68
2021/05/23 11:03:15;;;;;;;0.82;0.70;;;20.10;50.70;;;;;;3572818;40;20469;-71
2021/05/23 11:05:41;;;;;;;0.80;0.80;;;19.90;51.20;;;;;;3570181;40;20092;-67
2021/05/23 11:08:08;;;;;;;0.95;0.75;;;19.80;52.90;;;;;;3575689;40;20059;-66
2021/05/23 11:10:43;;;;;;;0.50;0.50;;;19.70;51.70;;;;;;3575084;40;20025;-67
2021/05/23 11:13:12;;;;;;;2.63;2.08;;;19.50;52.40;;;;;;3575672;40;20113;-67
2021/05/23 11:15:47;;;;;;;1.80;1.70;;;19.50;52.80;;;;;;3579318;40;20814;-68
2021/05/23 11:18:27;;;;;;;1.85;0.93;;;19.60;52.90;;;;;;3580477;40;20090;-68
2021/05/23 11:21:04;;;;;;;3.03;1.35;;;19.60;53.30;;;;;;3575995;40;20705;-69
2021/05/23 11:23:31;;;;;;;1.55;1.42;;;19.50;53.10;;;;;;3575332;40;20049;-68
2021/05/23 11:26:08;;;;;;;1.17;0.73;;;19.50;52.40;;;;;;3575509;40;20073;-68
2021/05/23 11:28:33;;;;;;;1.20;0.70;;;19.50;53.40;;;;;;3571439;40;20469;-66
2021/05/23 11:30:59;;;;;;;1.23;0.70;;;19.50;52.50;;;;;;3575043;40;20040;-67
2021/05/23 11:33:26;;;;;;;0.75;0.70;;;19.60;53.60;;;;;;3576148;40;20681;-67
2021/05/23 11:35:53;;;;;;;0.60;0.60;;;19.80;54.20;;;;;;3576050;40;20095;-67
2021/05/23 11:38:33;;;;;;;0.52;0.50;;;19.80;52.50;;;;;;3576178;40;20384;-67
2021/05/23 11:40:59;;;;;;;0.40;0.40;;;19.80;52.40;;;;;;3571444;40;20041;-68
2021/05/23 11:43:24;;;;;;;0.30;0.30;;;19.40;53.20;;;;;;3571080;40;20676;-67
2021/05/23 11:45:59;;;;;;;0.90;0.47;;;19.40;53.80;;;;;;3577931;40;20043;-67
2021/05/23 11:48:40;;;;;;;0.38;0.30;;;19.40;51.80;;;;;;3575610;40;20032;-67
2021/05/23 11:51:11;;;;;;;0.40;0.40;;;19.40;52.50;;;;;;3575644;40;20072;-68
2021/05/23 11:53:45;;;;;;;0.65;0.65;;;19.50;52.70;;;;;;3572484;40;20187;-68
2021/05/23 11:56:17;;;;;;;0.55;0.55;;;19.50;52.40;;;;;;3572440;40;20017;-68
2021/05/23 11:58:56;;;;;;;0.65;0.40;;;19.50;52.50;;;;;;3578455;40;20093;-68
2021/05/23 12:01:27;;;;;;;0.50;0.50;;;19.50;53.10;;;;;;3576050;40;20169;-68
2021/05/23 12:04:07;;;;;;;0.77;0.50;;;19.50;53.10;;;;;;3576568;40;20087;-69
2021/05/23 12:06:41;;;;;;;1.10;0.80;;;19.30;53.00;;;;;;3570451;40;20336;-69
2021/05/23 12:09:15;;;;;;;0.70;0.70;;;19.30;53.80;;;;;;3578746;40;20028;-68
2021/05/23 12:11:52;;;;;;;1.58;1.48;;;19.30;52.80;;;;;;3572753;40;20111;-70
2021/05/23 12:14:29;;;;;;;0.40;0.40;;;19.40;53.20;;;;;;3575362;40;20024;-69
2021/05/23 12:17:04;;;;;;;3.08;0.45;;;19.60;51.90;;;;;;3569349;40;20028;-68
2021/05/23 12:19:59;;;;;;;0.73;0.37;;;19.50;53.10;;;;;;3571686;40;20032;-67
2021/05/23 12:22:42;;;;;;;0.50;0.28;;;19.70;52.00;;;;;;3575859;40;20270;-76
2021/05/23 12:25:14;;;;;;;1.45;0.55;;;19.90;50.90;;;;;;3571607;40;20396;-67
2021/05/23 12:27:48;;;;;;;0.30;0.30;;;19.90;49.40;;;;;;3569861;40;20024;-70
2021/05/23 12:30:22;;;;;;;0.30;0.30;;;19.60;51.80;;;;;;3578285;40;20054;-71
2021/05/23 12:33:08;;;;;;;1.20;0.32;;;19.50;52.20;;;;;;3571839;40;20073;-72
2021/05/23 12:35:39;;;;;;;0.57;0.40;;;19.40;51.80;;;;;;3573584;40;20031;-73
2021/05/23 12:38:11;;;;;;;0.38;0.38;;;19.40;52.70;;;;;;3576522;40;20029;-72
2021/05/23 12:40:45;;;;;;;0.63;0.40;;;19.50;50.70;;;;;;3573358;40;20488;-71
2021/05/23 12:43:13;;;;;;;1.58;0.55;;;19.50;53.00;;;;;;3575047;40;20787;-67
2021/05/23 12:45:40;;;;;;;0.40;0.40;;;19.40;52.30;;;;;;3572318;40;20151;-67
2021/05/23 12:48:07;;;;;;;0.40;0.40;;;19.20;52.40;;;;;;3573566;40;20114;-67
2021/05/23 12:50:39;;;;;;;0.68;0.60;;;19.00;52.90;;;;;;3575186;40;20129;-67
2021/05/23 12:53:06;;;;;;;0.93;0.60;;;18.90;53.00;;;;;;3576239;40;20024;-70